首页
METAR-TAF:

METAR-TAF

机场 :

通孔廷国际机场

德古斯加巴, 洪都拉斯

纬度: 14-03N, 经度: 087-13W, 海拔: 994米

当前天气观测

该预报发布于14小时和12分钟前的22:00 UTC
风速10节,风向
温度 32°C
湿度 26%
气压 1016 hPa
能见度10公里或以上
少量云层高于3200英尺

METAR: MHTG 082200Z 08010KT 9999 FEW032 32/10 Q1016 A3000

时间: 06:12 (12:12 UTC)

预报

该预报发布于1小时和57分钟前的10:15 UTC
预报有效从09日的 12点(UTC)到 10日的 12点(UTC)
风速4节,风向
能見度: 4000
少量云层高于3200英尺
成为
从 09日的 15点(UTC)到 09日的 17点(UTC)
风速8节,风向
能见度10公里或以上
成为
从 10日的 02点(UTC)到 10日的 04点(UTC)
风速2节,风向多变

TAF: MHTG 091015Z 0912/1012 01004KT 4000 FU FEW032 TX33/0920Z TN15/1012Z BECMG 0915/0917 08008KT 9999 NSW BECMG 1002/1004 VRB02KT

超过4000个机场的气象观测和天气预报(METAR&TAF报告)。

可查询的气象台以黄色和红色小点在地图上表示。

将鼠标移到小点上方,可查看气象台名称。

然后点击查看天气观测和预报。

如需切换地图:点击带黑十字的绿色按钮放大地图;点击带横线的绿色按钮缩小地图;或者点击绿色箭头查看邻近地区的地图。


METAR-TAF: